Time;durP1;ratioP1;P1;durP2;ratioP2;P2;SDS_P1;SDS_P2;PMS_P1;PMS_P2;Temp;Humidity;BMP_temperature;BMP_pressure;BME280_temperature;BME280_humidity;BME280_pressure;Samples;Min_cycle;Max_cycle;Signal;HPM_P1;HPM_P2
2022/08/11 00:00:55;;;;;;;3.25;1.70;;;;;;;;;;4913122;29;20039;-76
2022/08/11 00:03:21;;;;;;;5.93;2.05;;;;;;;;;;4895973;29;20037;-76
2022/08/11 00:05:48;;;;;;;2.47;1.67;;;;;;;;;;4903285;29;20093;-76
2022/08/11 00:08:25;;;;;;;5.90;1.75;;;;;;;;;;4866678;29;20033;-78
2022/08/11 00:10:53;;;;;;;5.63;1.77;;;;;;;;;;4894630;29;20092;-76
2022/08/11 00:13:19;;;;;;;9.27;2.05;;;;;;;;;;4880114;29;20025;-74
2022/08/11 00:15:46;;;;;;;2.88;1.70;;;;;;;;;;4879897;29;20071;-76
2022/08/11 00:18:13;;;;;;;4.03;1.77;;;;;;;;;;4879985;29;20025;-76
2022/08/11 00:20:40;;;;;;;3.45;1.80;;;;;;;;;;4879865;29;20044;-77
2022/08/11 00:23:08;;;;;;;3.95;1.52;;;;;;;;;;4879856;29;20037;-77
2022/08/11 00:25:39;;;;;;;4.82;2.00;;;;;;;;;;4879744;29;20556;-76
2022/08/11 00:28:22;;;;;;;6.50;2.40;;;;;;;;;;4880616;29;20033;-78
2022/08/11 00:30:50;;;;;;;6.85;2.47;;;;;;;;;;4879731;29;20022;-79
2022/08/11 00:33:16;;;;;;;5.50;2.30;;;;;;;;;;4882950;29;20136;-78
2022/08/11 00:35:43;;;;;;;6.32;2.10;;;;;;;;;;4881723;29;20093;-79
2022/08/11 00:38:10;;;;;;;7.03;3.10;;;;;;;;;;4879853;29;20070;-78
2022/08/11 00:40:41;;;;;;;8.77;2.90;;;;;;;;;;4880099;29;20033;-78
2022/08/11 00:43:10;;;;;;;12.52;3.63;;;;;;;;;;4881809;29;20038;-78
2022/08/11 00:45:42;;;;;;;10.70;2.70;;;;;;;;;;4879952;29;20119;-78
2022/08/11 00:48:20;;;;;;;5.50;2.35;;;;;;;;;;4880873;29;20036;-77
2022/08/11 00:51:07;;;;;;;6.78;2.22;;;;;;;;;;4879503;29;20032;-78
2022/08/11 00:53:39;;;;;;;3.50;1.92;;;;;;;;;;4880680;29;20041;-78
2022/08/11 00:56:26;;;;;;;5.30;1.88;;;;;;;;;;4881903;29;20430;-79
2022/08/11 00:58:58;;;;;;;7.35;2.40;;;;;;;;;;4879211;29;20036;-79
2022/08/11 01:01:31;;;;;;;6.45;1.90;;;;;;;;;;4880343;29;20033;-78
2022/08/11 01:04:16;;;;;;;5.85;2.53;;;;;;;;;;4879208;29;20025;-77
2022/08/11 01:06:54;;;;;;;4.35;2.00;;;;;;;;;;4878572;29;20040;-77
2022/08/11 01:09:37;;;;;;;5.82;2.22;;;;;;;;;;4879125;29;20040;-77
2022/08/11 01:12:09;;;;;;;8.02;2.20;;;;;;;;;;4879153;29;20088;-76
2022/08/11 01:14:52;;;;;;;5.38;2.35;;;;;;;;;;4879110;29;20101;-76
2022/08/11 01:17:34;;;;;;;4.28;2.40;;;;;;;;;;4880314;29;20085;-77
2022/08/11 01:20:19;;;;;;;5.25;2.58;;;;;;;;;;4879299;29;20028;-76
2022/08/11 01:23:04;;;;;;;9.45;2.60;;;;;;;;;;4879061;29;20082;-78
2022/08/11 01:25:33;;;;;;;5.22;2.50;;;;;;;;;;4878787;29;20025;-78
2022/08/11 01:28:06;;;;;;;6.28;2.25;;;;;;;;;;4880995;29;20060;-78
2022/08/11 01:30:51;;;;;;;6.33;2.57;;;;;;;;;;4878627;29;20073;-78
2022/08/11 01:33:35;;;;;;;3.92;2.10;;;;;;;;;;4880915;29;20045;-78
2022/08/11 01:36:20;;;;;;;6.55;2.17;;;;;;;;;;4894074;29;20024;-78
2022/08/11 01:39:10;;;;;;;4.28;2.30;;;;;;;;;;4878532;29;20033;-76
2022/08/11 01:44:57;;;;;;;7.85;2.25;;;;;;;;;;4880375;29;20044;-79
2022/08/11 01:50:23;;;;;;;4.65;2.00;;;;;;;;;;4880026;29;20440;-79
2022/08/11 01:52:55;;;;;;;3.15;1.85;;;;;;;;;;4878666;29;20479;-78
2022/08/11 01:55:25;;;;;;;3.97;2.08;;;;;;;;;;4879486;29;20029;-78
2022/08/11 01:58:06;;;;;;;3.88;2.00;;;;;;;;;;4882126;29;20050;-77
2022/08/11 02:00:42;;;;;;;5.57;2.28;;;;;;;;;;4878677;29;20036;-78
2022/08/11 02:03:26;;;;;;;5.90;2.45;;;;;;;;;;4879757;29;20073;-79
2022/08/11 02:06:53;;;;;;;7.82;2.38;;;;;;;;;;4879583;29;20554;-77
2022/08/11 02:09:07;;;;;;;3.33;2.00;;;;;;;;;;4879757;29;20117;-77
2022/08/11 02:11:37;;;;;;;4.45;1.90;;;;;;;;;;4879400;29;20045;-77
2022/08/11 02:14:19;;;;;;;5.38;2.30;;;;;;;;;;4878401;29;20128;-77
2022/08/11 02:17:04;;;;;;;5.20;2.35;;;;;;;;;;4879265;29;20178;-78
2022/08/11 02:25:53;;;;;;;5.70;2.30;;;;;;;;;;4883335;29;20040;-78
2022/08/11 02:28:27;;;;;;;3.47;2.30;;;;;;;;;;4881857;29;20064;-78
2022/08/11 02:33:46;;;;;;;2.90;1.83;;;;;;;;;;4883146;29;20410;-78
2022/08/11 02:36:21;;;;;;;4.35;1.92;;;;;;;;;;4881736;29;20127;-78
2022/08/11 02:38:54;;;;;;;3.42;2.00;;;;;;;;;;4881764;29;20037;-76
2022/08/11 02:44:09;;;;;;;3.53;1.98;;;;;;;;;;4883164;29;20077;-78
2022/08/11 02:46:47;;;;;;;3.28;1.90;;;;;;;;;;4881452;29;20040;-79
2022/08/11 02:52:13;;;;;;;7.40;2.38;;;;;;;;;;4882698;29;20048;-77
2022/08/11 02:55:02;;;;;;;3.40;1.85;;;;;;;;;;4881334;29;20101;-78
2022/08/11 02:57:37;;;;;;;3.92;1.88;;;;;;;;;;4881456;29;20431;-78
2022/08/11 03:00:08;;;;;;;3.92;1.80;;;;;;;;;;4881160;29;20165;-77
2022/08/11 03:02:53;;;;;;;3.50;2.05;;;;;;;;;;4881681;29;20544;-78
2022/08/11 03:05:38;;;;;;;4.18;1.85;;;;;;;;;;4884392;29;20068;-77
2022/08/11 03:08:17;;;;;;;6.07;2.03;;;;;;;;;;4881496;29;20493;-77
2022/08/11 03:16:43;;;;;;;5.55;2.00;;;;;;;;;;4881106;29;20403;-79
2022/08/11 03:16:52;;;;;;;2.85;1.70;;;;;;;;;;4883115;29;20047;-79
2022/08/11 03:19:19;;;;;;;3.72;2.20;;;;;;;;;;4857475;29;20517;-78
2022/08/11 03:21:51;;;;;;;3.08;1.90;;;;;;;;;;4881982;29;20033;-77
2022/08/11 03:24:18;;;;;;;4.63;2.07;;;;;;;;;;4880672;29;20502;-77
2022/08/11 03:26:52;;;;;;;7.20;1.98;;;;;;;;;;4882012;29;20085;-78
2022/08/11 03:29:37;;;;;;;4.70;2.05;;;;;;;;;;4880834;29;20032;-78
2022/08/11 03:32:11;;;;;;;5.05;2.00;;;;;;;;;;4880659;29;20041;-78
2022/08/11 03:34:39;;;;;;;2.90;1.88;;;;;;;;;;4880276;29;20033;-77
2022/08/11 03:37:08;;;;;;;4.07;2.10;;;;;;;;;;4881004;29;20039;-77
2022/08/11 03:39:41;;;;;;;2.80;1.65;;;;;;;;;;4880692;29;20116;-78
2022/08/11 03:42:26;;;;;;;6.63;2.10;;;;;;;;;;4881417;29;20033;-77
2022/08/11 03:45:01;;;;;;;5.85;2.05;;;;;;;;;;4882034;29;20490;-77
2022/08/11 03:47:41;;;;;;;3.78;2.30;;;;;;;;;;4880559;29;20036;-78
2022/08/11 03:50:25;;;;;;;6.25;2.10;;;;;;;;;;4885187;29;20029;-77
2022/08/11 03:52:58;;;;;;;3.60;1.92;;;;;;;;;;4906328;29;20044;-76
2022/08/11 03:55:24;;;;;;;6.45;2.15;;;;;;;;;;4880032;29;20033;-77
2022/08/11 03:58:08;;;;;;;3.38;1.67;;;;;;;;;;4880331;29;20039;-76
2022/08/11 04:00:53;;;;;;;4.65;2.13;;;;;;;;;;4882550;29;20037;-77
2022/08/11 04:03:38;;;;;;;3.95;2.05;;;;;;;;;;4880000;29;20028;-77
2022/08/11 04:06:18;;;;;;;3.88;1.92;;;;;;;;;;4880443;29;20026;-77
2022/08/11 04:08:50;;;;;;;4.25;2.28;;;;;;;;;;4880378;29;20056;-76
2022/08/11 04:11:22;;;;;;;3.47;2.03;;;;;;;;;;4879409;29;20069;-77
2022/08/11 04:13:51;;;;;;;3.83;2.03;;;;;;;;;;4879791;29;20037;-77
2022/08/11 04:16:38;;;;;;;3.03;1.65;;;;;;;;;;4879808;29;20036;-78
2022/08/11 04:19:13;;;;;;;3.65;1.88;;;;;;;;;;4845378;29;20121;-77
2022/08/11 04:21:51;;;;;;;6.20;2.00;;;;;;;;;;4881070;29;20033;-77
2022/08/11 04:24:36;;;;;;;6.75;2.38;;;;;;;;;;4879780;29;20455;-77
2022/08/11 04:27:21;;;;;;;6.97;2.38;;;;;;;;;;4880487;29;20519;-77
2022/08/11 04:29:47;;;;;;;4.57;1.90;;;;;;;;;;4880580;29;20037;-78
2022/08/11 04:32:40;;;;;;;4.50;1.60;;;;;;;;;;4879608;29;20040;-78
2022/08/11 04:35:24;;;;;;;5.70;1.92;;;;;;;;;;4850094;29;20044;-77
2022/08/11 04:38:09;;;;;;;5.57;2.00;;;;;;;;;;4879740;29;20107;-78
2022/08/11 04:40:54;;;;;;;6.00;1.80;;;;;;;;;;4882306;29;20124;-77
2022/08/11 04:43:39;;;;;;;7.22;1.88;;;;;;;;;;4879819;29;20482;-77
2022/08/11 04:46:17;;;;;;;5.38;1.80;;;;;;;;;;4885492;29;20023;-77
2022/08/11 05:03:57;;;;;;;2.95;1.70;;;;;;;;;;4881015;29;20055;-77
2022/08/11 05:06:24;;;;;;;3.45;1.80;;;;;;;;;;4881033;29;20489;-85
2022/08/11 05:08:53;;;;;;;5.45;2.00;;;;;;;;;;4880221;29;20077;-83
2022/08/11 05:11:35;;;;;;;3.05;1.80;;;;;;;;;;4879218;29;20057;-83
2022/08/11 05:36:46;;;;;;;5.45;1.40;;;;;;;;;;4880050;29;20089;-75
2022/08/11 05:58:43;;;;;;;1.70;0.80;;;;;;;;;;4877080;29;20048;-76
2022/08/11 06:01:14;;;;;;;2.83;1.08;;;;;;;;;;4890656;29;20029;-77
2022/08/11 06:06:29;;;;;;;2.35;0.88;;;;;;;;;;4871855;29;20060;-76
2022/08/11 06:08:56;;;;;;;3.15;1.10;;;;;;;;;;4901277;29;20036;-79
2022/08/11 06:11:23;;;;;;;2.35;1.00;;;;;;;;;;4901449;29;20088;-85
2022/08/11 06:13:49;;;;;;;2.70;1.30;;;;;;;;;;4875726;29;20089;-76
2022/08/11 06:16:21;;;;;;;7.15;0.65;;;;;;;;;;4875693;29;20030;-83
2022/08/11 06:18:47;;;;;;;1.63;0.70;;;;;;;;;;4875630;29;20514;-88
2022/08/11 06:21:14;;;;;;;3.38;1.10;;;;;;;;;;4875368;29;20030;-77
2022/08/11 06:23:41;;;;;;;3.00;0.95;;;;;;;;;;4876269;29;20037;-86
2022/08/11 06:26:09;;;;;;;1.38;0.77;;;;;;;;;;4875465;29;20033;-80
2022/08/11 06:28:36;;;;;;;3.45;0.93;;;;;;;;;;4876354;29;20036;-84
2022/08/11 06:31:12;;;;;;;4.72;0.90;;;;;;;;;;4861504;29;20028;-84
2022/08/11 06:34:05;;;;;;;2.75;0.90;;;;;;;;;;4876061;29;20041;-85
2022/08/11 06:36:38;;;;;;;6.05;1.15;;;;;;;;;;4880713;29;20022;-88
2022/08/11 06:39:37;;;;;;;1.50;0.80;;;;;;;;;;4876854;29;20120;-91
2022/08/11 06:42:12;;;;;;;1.88;0.82;;;;;;;;;;4849998;29;20046;-80
2022/08/11 06:44:40;;;;;;;1.20;0.63;;;;;;;;;;4891519;29;20116;-82
2022/08/11 06:47:11;;;;;;;1.52;0.65;;;;;;;;;;4893873;29;20032;-82
2022/08/11 06:52:34;;;;;;;5.70;0.82;;;;;;;;;;4875829;29;20101;-82
2022/08/11 06:55:06;;;;;;;3.92;0.90;;;;;;;;;;4877662;29;20064;-87
2022/08/11 07:00:27;;;;;;;2.85;0.80;;;;;;;;;;4862611;29;20399;-87
2022/08/11 07:03:13;;;;;;;2.83;0.85;;;;;;;;;;4862812;29;20037;-87
2022/08/11 07:05:42;;;;;;;1.30;0.60;;;;;;;;;;4864104;29;20474;-87
2022/08/11 07:16:33;;;;;;;4.28;0.60;;;;;;;;;;4879447;29;20121;-87
2022/08/11 07:30:11;;;;;;;3.05;0.98;;;;;;;;;;4902558;29;20072;-88
2022/08/11 07:32:48;;;;;;;2.88;0.70;;;;;;;;;;4901482;29;20045;-87
2022/08/11 07:35:19;;;;;;;2.47;0.63;;;;;;;;;;4900905;29;20184;-86
2022/08/11 07:37:51;;;;;;;1.85;0.73;;;;;;;;;;4901683;29;20013;-87
2022/08/11 07:40:17;;;;;;;;;;;;;;;;;;4884412;29;20037;-87
2022/08/11 07:42:45;;;;;;;1.52;0.50;;;;;;;;;;4865959;29;19912;-88
2022/08/11 07:53:30;;;;;;;0.75;0.40;;;;;;;;;;4864874;29;20529;-87
2022/08/11 07:55:59;;;;;;;2.50;0.50;;;;;;;;;;4873650;29;20272;-86
2022/08/11 08:17:52;;;;;;;0.88;0.32;;;;;;;;;;4881179;29;20042;-80
2022/08/11 08:20:23;;;;;;;1.65;0.60;;;;;;;;;;4880118;29;20033;-81
2022/08/11 08:22:55;;;;;;;1.00;0.40;;;;;;;;;;4880210;29;20037;-81
2022/08/11 08:25:29;;;;;;;1.05;0.40;;;;;;;;;;4881141;29;20021;-81
2022/08/11 08:27:56;;;;;;;2.55;0.50;;;;;;;;;;4881219;29;20041;-87
2022/08/11 08:33:09;;;;;;;1.83;0.57;;;;;;;;;;4883114;29;20056;-87
2022/08/11 08:35:36;;;;;;;1.02;0.30;;;;;;;;;;4881493;29;20112;-86
2022/08/11 08:38:03;;;;;;;1.17;0.47;;;;;;;;;;4881786;29;20036;-86
2022/08/11 08:40:29;;;;;;;1.45;0.50;;;;;;;;;;4880626;29;20036;-86
2022/08/11 08:42:57;;;;;;;2.28;0.43;;;;;;;;;;4882913;29;20029;-86
2022/08/11 08:45:25;;;;;;;2.75;0.47;;;;;;;;;;4882036;29;20056;-87
2022/08/11 08:47:54;;;;;;;2.75;0.52;;;;;;;;;;4879779;29;20033;-81
2022/08/11 08:50:22;;;;;;;1.05;0.43;;;;;;;;;;4881634;29;20029;-86
2022/08/11 08:52:58;;;;;;;1.30;0.60;;;;;;;;;;4881574;29;20052;-86
2022/08/11 08:55:25;;;;;;;2.20;0.75;;;;;;;;;;4881594;29;20065;-86
2022/08/11 08:57:53;;;;;;;1.23;0.60;;;;;;;;;;4882100;29;20025;-86
2022/08/11 09:00:20;;;;;;;2.28;0.50;;;;;;;;;;4881805;29;20044;-87
2022/08/11 09:02:46;;;;;;;1.60;0.60;;;;;;;;;;4881747;29;20021;-87
2022/08/11 09:05:13;;;;;;;2.42;0.60;;;;;;;;;;4881437;29;20033;-87
2022/08/11 09:07:39;;;;;;;4.18;0.50;;;;;;;;;;4882567;29;20554;-87
2022/08/11 09:10:06;;;;;;;2.35;0.60;;;;;;;;;;4879861;29;20055;-86
2022/08/11 09:12:36;;;;;;;1.27;0.75;;;;;;;;;;4864262;29;20044;-89
2022/08/11 09:15:05;;;;;;;1.77;0.70;;;;;;;;;;4862989;29;20029;-86
2022/08/11 09:17:34;;;;;;;1.60;0.77;;;;;;;;;;4863352;29;20021;-87
2022/08/11 09:20:03;;;;;;;1.30;0.50;;;;;;;;;;4863771;29;20041;-86
2022/08/11 09:28:03;;;;;;;4.10;0.70;;;;;;;;;;4863973;29;20062;-85
2022/08/11 09:30:30;;;;;;;3.00;0.90;;;;;;;;;;4862857;29;20034;-86
2022/08/11 09:32:59;;;;;;;2.25;0.95;;;;;;;;;;4862840;29;20132;-87
2022/08/11 09:35:29;;;;;;;3.22;0.60;;;;;;;;;;4861850;29;20435;-87
2022/08/11 09:40:43;;;;;;;1.27;0.60;;;;;;;;;;4864239;29;20068;-88
2022/08/11 09:45:57;;;;;;;1.48;0.60;;;;;;;;;;4864474;29;20040;-87
2022/08/11 09:48:24;;;;;;;1.67;0.60;;;;;;;;;;4862791;29;20034;-88
2022/08/11 09:50:54;;;;;;;0.70;0.40;;;;;;;;;;4862799;29;20053;-88
2022/08/11 09:53:21;;;;;;;1.80;0.70;;;;;;;;;;4862576;29;20551;-88
2022/08/11 09:55:47;;;;;;;2.70;0.80;;;;;;;;;;4863809;29;20030;-88
2022/08/11 09:58:17;;;;;;;4.00;0.50;;;;;;;;;;4862346;29;20041;-90
2022/08/11 10:00:44;;;;;;;1.17;0.50;;;;;;;;;;4863378;29;20036;-89
2022/08/11 10:03:10;;;;;;;0.80;0.30;;;;;;;;;;4862741;29;20051;-89
2022/08/11 10:08:28;;;;;;;1.63;0.43;;;;;;;;;;4864595;29;20052;-89
2022/08/11 10:10:55;;;;;;;1.38;0.68;;;;;;;;;;4879310;29;20049;-88
2022/08/11 10:13:24;;;;;;;1.77;0.50;;;;;;;;;;4879983;29;20177;-83
2022/08/11 10:15:51;;;;;;;3.15;0.60;;;;;;;;;;4880292;29;20053;-87
2022/08/11 10:21:16;;;;;;;0.95;0.40;;;;;;;;;;4882243;29;20040;-87
2022/08/11 10:34:47;;;;;;;1.60;0.65;;;;;;;;;;4879754;29;20044;-83
2022/08/11 10:37:14;;;;;;;2.90;0.75;;;;;;;;;;4878262;29;20493;-81
2022/08/11 10:39:41;;;;;;;1.05;0.45;;;;;;;;;;4887027;29;20029;-82
2022/08/11 10:44:56;;;;;;;1.17;0.55;;;;;;;;;;4883231;29;20398;-81
2022/08/11 10:47:35;;;;;;;1.67;0.50;;;;;;;;;;4881722;29;20032;-89
2022/08/11 11:01:04;;;;;;;1.20;0.47;;;;;;;;;;4885527;29;20092;-88
2022/08/11 11:03:33;;;;;;;3.47;0.77;;;;;;;;;;4884693;29;20037;-88
2022/08/11 11:06:11;;;;;;;1.88;0.60;;;;;;;;;;4885174;29;20028;-88
2022/08/11 11:08:54;;;;;;;1.30;0.55;;;;;;;;;;4883216;29;20037;-88
2022/08/11 11:19:53;;;;;;;2.17;0.63;;;;;;;;;;4867312;29;20041;-88
2022/08/11 11:25:05;;;;;;;1.75;0.85;;;;;;;;;;4865701;29;20045;-88
2022/08/11 11:27:34;;;;;;;1.30;0.60;;;;;;;;;;4864485;29;20030;-88
2022/08/11 11:30:00;;;;;;;1.42;0.60;;;;;;;;;;4866746;29;20033;-87
2022/08/11 11:32:41;;;;;;;3.10;0.60;;;;;;;;;;4864916;29;20037;-88
2022/08/11 11:35:26;;;;;;;3.03;0.80;;;;;;;;;;4866544;29;20025;-88
2022/08/11 11:37:53;;;;;;;7.65;0.80;;;;;;;;;;4864490;29;20029;-88
2022/08/11 11:40:21;;;;;;;1.35;0.70;;;;;;;;;;4863206;29;20435;-88
2022/08/11 11:42:48;;;;;;;4.25;1.85;;;;;;;;;;4862647;29;20050;-88
2022/08/11 11:45:16;;;;;;;3.88;0.90;;;;;;;;;;4860266;29;20137;-87
2022/08/11 11:47:43;;;;;;;2.53;0.90;;;;;;;;;;4864730;29;20035;-88
2022/08/11 11:50:09;;;;;;;5.43;0.80;;;;;;;;;;4862836;29;20120;-88
2022/08/11 11:52:37;;;;;;;4.97;0.60;;;;;;;;;;4865432;29;20088;-88
2022/08/11 11:55:04;;;;;;;2.35;0.70;;;;;;;;;;4863814;29;20112;-87
2022/08/11 12:03:07;;;;;;;1.40;0.60;;;;;;;;;;4870337;29;20441;-87
2022/08/11 12:05:34;;;;;;;1.88;0.40;;;;;;;;;;4863805;29;20038;-88
2022/08/11 12:13:49;;;;;;;1.20;0.60;;;;;;;;;;4884688;29;20100;-88
2022/08/11 12:16:15;;;;;;;1.52;0.50;;;;;;;;;;4882947;29;20041;-88
2022/08/11 12:18:42;;;;;;;3.92;0.60;;;;;;;;;;4885033;29;20036;-88
2022/08/11 12:21:09;;;;;;;1.88;0.70;;;;;;;;;;4882884;29;20064;-88
2022/08/11 12:29:07;;;;;;;1.80;0.50;;;;;;;;;;4883885;29;20044;-88
2022/08/11 12:31:34;;;;;;;1.30;0.70;;;;;;;;;;4882327;29;20032;-87
2022/08/11 12:34:01;;;;;;;1.33;0.50;;;;;;;;;;4880752;29;20040;-87
2022/08/11 12:36:27;;;;;;;2.38;0.80;;;;;;;;;;4883964;29;20061;-87
2022/08/11 12:38:54;;;;;;;3.97;0.93;;;;;;;;;;4881971;29;20033;-87
2022/08/11 12:47:07;;;;;;;1.63;0.90;;;;;;;;;;4860962;29;20037;-86
2022/08/11 12:52:25;;;;;;;1.52;0.70;;;;;;;;;;4882812;29;20055;-87
2022/08/11 12:55:06;;;;;;;4.18;0.88;;;;;;;;;;4880914;29;20043;-87
2022/08/11 13:05:54;;;;;;;5.22;0.88;;;;;;;;;;4882165;29;20090;-87
2022/08/11 13:08:21;;;;;;;2.15;0.70;;;;;;;;;;4880754;29;20037;-87
2022/08/11 13:13:34;;;;;;;1.50;0.75;;;;;;;;;;4882808;29;20093;-86
2022/08/11 13:16:00;;;;;;;2.53;0.70;;;;;;;;;;4880832;29;20025;-87
2022/08/11 13:18:26;;;;;;;3.75;0.88;;;;;;;;;;4894098;29;20475;-86
2022/08/11 13:20:56;;;;;;;1.63;0.70;;;;;;;;;;4880454;29;20021;-87
2022/08/11 13:23:24;;;;;;;3.13;0.57;;;;;;;;;;4881139;29;20136;-86
2022/08/11 13:25:51;;;;;;;4.00;0.88;;;;;;;;;;4903746;29;20021;-86
2022/08/11 13:28:20;;;;;;;1.25;0.60;;;;;;;;;;4896597;29;20044;-87
2022/08/11 13:33:32;;;;;;;1.42;0.50;;;;;;;;;;4882182;29;20043;-87
2022/08/11 13:36:04;;;;;;;2.38;0.68;;;;;;;;;;4906871;29;20057;-91
2022/08/11 13:38:31;;;;;;;2.45;0.60;;;;;;;;;;4916031;29;20035;-86
2022/08/11 13:40:57;;;;;;;2.55;0.90;;;;;;;;;;4888885;29;20032;-83
2022/08/11 13:43:24;;;;;;;6.15;0.88;;;;;;;;;;4900552;29;20053;-82
2022/08/11 13:46:17;;;;;;;1.98;0.65;;;;;;;;;;4901567;29;20029;-82
2022/08/11 13:48:38;;;;;;;3.35;0.70;;;;;;;;;;4869720;29;20033;-82
2022/08/11 13:53:49;;;;;;;3.08;0.77;;;;;;;;;;4876187;29;20036;-80
2022/08/11 13:56:15;;;;;;;2.45;0.80;;;;;;;;;;4866098;29;20026;-80
2022/08/11 13:58:42;;;;;;;1.95;0.70;;;;;;;;;;4878929;29;20033;-79
2022/08/11 14:01:09;;;;;;;1.48;0.60;;;;;;;;;;4878264;29;20029;-79
2022/08/11 14:03:40;;;;;;;1.63;0.80;;;;;;;;;;4879954;29;20040;-79
2022/08/11 14:06:08;;;;;;;1.92;0.63;;;;;;;;;;4880005;29;20036;-79
2022/08/11 14:08:37;;;;;;;5.22;1.30;;;;;;;;;;4878335;29;20124;-78
2022/08/11 14:13:50;;;;;;;4.68;1.02;;;;;;;;;;4879829;29;20051;-77
2022/08/11 14:16:18;;;;;;;3.35;0.90;;;;;;;;;;4883622;29;20040;-78
2022/08/11 14:18:45;;;;;;;2.40;0.60;;;;;;;;;;4882022;29;20033;-77
2022/08/11 14:23:59;;;;;;;3.10;0.80;;;;;;;;;;4873533;29;20048;-78
2022/08/11 14:26:26;;;;;;;1.55;0.80;;;;;;;;;;4901255;29;20144;-78
2022/08/11 14:29:04;;;;;;;3.42;0.80;;;;;;;;;;4868212;29;20033;-84
2022/08/11 14:31:31;;;;;;;4.10;0.85;;;;;;;;;;4893718;29;20032;-82
2022/08/11 14:34:01;;;;;;;2.40;0.80;;;;;;;;;;4896204;29;20139;-81
2022/08/11 14:36:29;;;;;;;1.60;0.75;;;;;;;;;;4893826;29;20398;-79
2022/08/11 14:38:56;;;;;;;2.75;1.00;;;;;;;;;;4876622;29;20101;-82
2022/08/11 14:47:06;;;;;;;1.25;0.70;;;;;;;;;;4883641;29;20052;-84
2022/08/11 14:49:37;;;;;;;3.13;0.75;;;;;;;;;;4897337;29;20432;-80
2022/08/11 14:52:06;;;;;;;10.85;1.20;;;;;;;;;;4883474;29;20061;-81
2022/08/11 14:57:18;;;;;;;1.92;0.90;;;;;;;;;;4883687;29;20040;-79
2022/08/11 14:59:48;;;;;;;3.67;1.00;;;;;;;;;;4897441;29;20479;-83
2022/08/11 15:05:01;;;;;;;5.18;0.80;;;;;;;;;;4874353;29;20173;-80
2022/08/11 15:07:31;;;;;;;1.85;0.70;;;;;;;;;;4874717;29;20029;-81
2022/08/11 15:10:02;;;;;;;2.67;0.75;;;;;;;;;;4869827;29;20053;-81
2022/08/11 15:12:29;;;;;;;1.88;0.68;;;;;;;;;;4878305;29;20041;-80
2022/08/11 15:17:40;;;;;;;3.75;0.90;;;;;;;;;;4864072;29;20052;-79
2022/08/11 15:25:43;;;;;;;3.60;0.82;;;;;;;;;;4877903;29;20093;-82
2022/08/11 15:39:22;;;;;;;3.70;0.80;;;;;;;;;;4883761;29;20067;-80
2022/08/11 15:47:33;;;;;;;4.15;0.90;;;;;;;;;;4882429;29;20128;-82
2022/08/11 15:50:00;;;;;;;2.65;0.77;;;;;;;;;;4891854;29;20026;-80
2022/08/11 15:52:30;;;;;;;4.32;0.70;;;;;;;;;;4882002;29;20084;-81
2022/08/11 15:55:01;;;;;;;1.67;0.75;;;;;;;;;;4899546;29;20394;-80
2022/08/11 16:05:45;;;;;;;1.38;0.50;;;;;;;;;;4886424;29;20073;-81
2022/08/11 16:08:13;;;;;;;1.63;0.68;;;;;;;;;;4884318;29;20057;-82
2022/08/11 16:10:39;;;;;;;4.18;0.77;;;;;;;;;;4898524;29;20124;-80
2022/08/11 16:18:20;;;;;;;3.08;0.85;;;;;;;;;;4885470;29;20448;-82
2022/08/11 16:20:46;;;;;;;2.65;0.80;;;;;;;;;;4897179;29;20025;-84
2022/08/11 16:23:14;;;;;;;3.63;0.68;;;;;;;;;;4896779;29;20041;-85
2022/08/11 16:25:41;;;;;;;1.70;0.73;;;;;;;;;;4897552;29;20394;-82
2022/08/11 16:28:09;;;;;;;2.72;0.60;;;;;;;;;;4899813;29;20033;-88
2022/08/11 16:30:36;;;;;;;1.33;0.60;;;;;;;;;;4901429;29;20035;-85
2022/08/11 16:33:04;;;;;;;4.55;1.15;;;;;;;;;;4897631;29;20049;-83
2022/08/11 16:38:34;;;;;;;2.65;0.90;;;;;;;;;;4874767;29;20056;-87
2022/08/11 16:41:06;;;;;;;3.80;1.00;;;;;;;;;;4898450;29;20111;-86
2022/08/11 16:49:10;;;;;;;5.22;1.00;;;;;;;;;;4875220;29;20041;-83
2022/08/11 16:51:36;;;;;;;4.10;0.90;;;;;;;;;;4903771;29;20033;-83
2022/08/11 16:54:03;;;;;;;2.15;0.50;;;;;;;;;;4906219;29;20033;-86
2022/08/11 16:56:35;;;;;;;3.00;0.70;;;;;;;;;;4901913;29;20402;-85
2022/08/11 16:59:15;;;;;;;2.50;0.60;;;;;;;;;;4903769;29;20084;-82
2022/08/11 17:02:01;;;;;;;1.80;0.95;;;;;;;;;;4898121;29;20506;-85
2022/08/11 17:13:09;;;;;;;1.88;0.82;;;;;;;;;;4863012;29;20048;-76
2022/08/11 17:18:45;;;;;;;4.18;1.23;;;;;;;;;;4867591;29;20040;-88
2022/08/11 17:21:13;;;;;;;2.40;0.82;;;;;;;;;;4887424;29;20041;-79
2022/08/11 17:23:48;;;;;;;2.28;0.75;;;;;;;;;;4896592;29;20025;-91
2022/08/11 17:29:21;;;;;;;2.10;0.70;;;;;;;;;;4881734;29;20076;-80
2022/08/11 17:37:19;;;;;;;3.88;0.82;;;;;;;;;;4862914;29;20526;-92
2022/08/11 17:39:46;;;;;;;2.35;1.00;;;;;;;;;;4876709;29;20064;-82
2022/08/11 17:50:32;;;;;;;3.22;1.00;;;;;;;;;;4861409;29;20113;-78
2022/08/11 18:01:14;;;;;;;2.78;1.27;;;;;;;;;;4880294;29;20505;-82
2022/08/11 18:03:41;;;;;;;4.43;0.90;;;;;;;;;;4894615;29;20483;-83
2022/08/11 18:06:09;;;;;;;1.50;0.77;;;;;;;;;;4894561;29;20028;-84
